Riley, Michigan
Current Conditions -  °F | °C
As of 4:18 AM on Monday 22 Dec 2014 (Local Time) from KPHN Reporting Station
Overcast Overcast  
Wind Chill: 25°   Ceiling: 2300
Heat Index: 30°   Visibility: 10mi
Dew Point: 27°   Wind: 5mph
Humidity: 86%   Direction: 130°SE
Pressure: 30.14"   Gusts: NA
Location:  42.9405°N, 82.8034°W
Report Text: KPHN 220918Z AUTO 13004KT 10SM OVC023 M01/M03 A3014 RMK AO2
Loading
Personal Weather Stations






























Interactive Weather Map New forecast layout! Learn more

10-Day Weather Forecast

Advertisements
Track Severe Weather on mobile